Time;durP1;ratioP1;P1;durP2;ratioP2;P2;SDS_P1;SDS_P2;PMS_P1;PMS_P2;Temp;Humidity;BMP_temperature;BMP_pressure;BME280_temperature;BME280_humidity;BME280_pressure;Samples;Min_cycle;Max_cycle;Signal;HPM_P1;HPM_P2
2021/07/01 00:00:18;;;;;;;3.28;2.67;;;;;;;;;;6247007;23;20000;-62
2021/07/01 00:02:44;;;;;;;3.30;3.10;;;;;;;;;;6246834;23;20057;-62
2021/07/01 00:05:11;;;;;;;3.45;3.05;;;;;;;;;;6220498;23;20079;-61
2021/07/01 00:07:37;;;;;;;3.50;3.30;;;;;;;;;;6247510;23;20004;-61
2021/07/01 00:10:07;;;;;;;3.50;3.30;;;;;;;;;;6247252;23;20000;-61
2021/07/01 00:12:33;;;;;;;3.42;3.22;;;;;;;;;;6247018;23;20043;-62
2021/07/01 00:14:58;;;;;;;3.40;3.20;;;;;;;;;;6247362;23;20336;-62
2021/07/01 00:17:25;;;;;;;4.47;2.90;;;;;;;;;;6246970;23;20004;-61
2021/07/01 00:19:50;;;;;;;2.85;2.75;;;;;;;;;;6220480;23;19996;-61
2021/07/01 00:22:15;;;;;;;2.67;2.47;;;;;;;;;;6246796;23;20016;-62
2021/07/01 00:24:41;;;;;;;2.65;2.55;;;;;;;;;;6247021;23;20003;-62
2021/07/01 00:27:06;;;;;;;2.72;2.63;;;;;;;;;;6247100;23;20086;-62
2021/07/01 00:29:32;;;;;;;2.55;2.45;;;;;;;;;;6247161;23;20050;-62
2021/07/01 00:31:57;;;;;;;2.60;2.50;;;;;;;;;;6247244;23;20015;-61
2021/07/01 00:34:23;;;;;;;2.92;2.72;;;;;;;;;;6247037;23;20000;-61
2021/07/01 00:36:48;;;;;;;2.70;2.50;;;;;;;;;;6246902;23;20043;-61
2021/07/01 00:39:15;;;;;;;3.42;2.92;;;;;;;;;;6247007;23;19996;-61
2021/07/01 00:41:41;;;;;;;3.08;2.60;;;;;;;;;;6194236;23;20040;-61
2021/07/01 00:44:07;;;;;;;2.88;2.67;;;;;;;;;;6220502;23;19996;-61
2021/07/01 00:46:33;;;;;;;2.58;2.22;;;;;;;;;;6219944;23;20008;-61
2021/07/01 00:48:59;;;;;;;2.75;2.55;;;;;;;;;;6220106;23;20482;-61
2021/07/01 00:51:25;;;;;;;2.97;2.78;;;;;;;;;;6246767;23;20008;-61
2021/07/01 00:53:51;;;;;;;2.65;2.47;;;;;;;;;;6247030;23;20004;-61
2021/07/01 00:56:19;;;;;;;3.90;3.10;;;;;;;;;;6219786;23;20008;-61
2021/07/01 00:58:45;;;;;;;3.40;3.20;;;;;;;;;;6219556;23;20007;-62
2021/07/01 01:01:10;;;;;;;2.88;2.75;;;;;;;;;;6219751;23;20320;-62
2021/07/01 01:03:37;;;;;;;3.55;3.22;;;;;;;;;;6219634;23;19999;-62
2021/07/01 01:06:04;;;;;;;4.72;2.88;;;;;;;;;;6219908;23;20027;-62
2021/07/01 01:08:31;;;;;;;2.72;2.53;;;;;;;;;;6219747;23;20027;-62
2021/07/01 01:10:57;;;;;;;2.65;2.55;;;;;;;;;;6246037;23;20004;-62
2021/07/01 01:13:44;;;;;;;2.78;2.60;;;;;;;;;;6223696;23;20020;-61
2021/07/01 01:16:35;;;;;;;2.58;2.45;;;;;;;;;;6221077;23;20015;-62
2021/07/01 01:19:04;;;;;;;2.83;2.58;;;;;;;;;;6220019;23;20053;-62
2021/07/01 01:21:30;;;;;;;2.55;2.45;;;;;;;;;;6219576;23;20083;-61
2021/07/01 01:23:57;;;;;;;2.67;2.47;;;;;;;;;;6219625;23;20062;-62
2021/07/01 01:26:22;;;;;;;2.47;2.38;;;;;;;;;;6246602;23;20004;-61
2021/07/01 01:28:49;;;;;;;3.97;2.78;;;;;;;;;;6219456;23;20314;-62
2021/07/01 01:31:14;;;;;;;2.92;2.72;;;;;;;;;;6219713;23;20007;-61
2021/07/01 01:33:41;;;;;;;2.72;2.53;;;;;;;;;;6219889;23;20031;-62
2021/07/01 01:36:06;;;;;;;2.60;2.40;;;;;;;;;;6246672;23;20003;-62
2021/07/01 01:38:34;;;;;;;2.85;2.65;;;;;;;;;;6219658;23;20091;-61
2021/07/01 01:41:23;;;;;;;3.00;2.80;;;;;;;;;;6246387;23;20004;-62
2021/07/01 01:43:49;;;;;;;2.70;2.50;;;;;;;;;;6246306;23;20004;-62
2021/07/01 01:46:15;;;;;;;2.78;2.58;;;;;;;;;;6219643;23;20054;-62
2021/07/01 01:48:41;;;;;;;2.80;2.70;;;;;;;;;;6219651;23;20062;-62
2021/07/01 01:51:06;;;;;;;2.60;2.47;;;;;;;;;;6218911;23;20011;-62
2021/07/01 01:53:32;;;;;;;2.88;2.63;;;;;;;;;;6246085;23;20012;-62
2021/07/01 01:55:59;;;;;;;4.63;2.78;;;;;;;;;;6246613;23;20000;-62
2021/07/01 01:58:25;;;;;;;2.90;2.70;;;;;;;;;;6219749;23;20081;-62
2021/07/01 02:01:08;;;;;;;3.45;2.92;;;;;;;;;;6246359;23;20011;-62
2021/07/01 02:03:34;;;;;;;3.55;3.25;;;;;;;;;;6194762;23;20348;-62
2021/07/01 02:06:20;;;;;;;3.28;2.97;;;;;;;;;;6245787;23;20000;-61
2021/07/01 02:08:45;;;;;;;3.20;2.92;;;;;;;;;;6246255;23;20083;-62
2021/07/01 02:11:11;;;;;;;3.88;2.90;;;;;;;;;;6218806;23;20399;-62
2021/07/01 02:13:38;;;;;;;4.50;3.10;;;;;;;;;;6219820;23;20021;-61
2021/07/01 02:16:28;;;;;;;3.15;2.97;;;;;;;;;;6233865;23;20016;-62
2021/07/01 02:18:54;;;;;;;5.97;3.40;;;;;;;;;;6246218;23;20039;-61
2021/07/01 02:21:19;;;;;;;3.55;3.17;;;;;;;;;;6219090;23;20000;-61
2021/07/01 02:23:45;;;;;;;3.28;3.08;;;;;;;;;;6246442;23;20340;-61
2021/07/01 02:26:10;;;;;;;4.65;4.10;;;;;;;;;;6246124;23;20485;-62
2021/07/01 02:28:36;;;;;;;4.35;4.05;;;;;;;;;;6246285;23;20429;-61
2021/07/01 02:31:33;;;;;;;3.92;3.63;;;;;;;;;;6179278;23;20000;-61
2021/07/01 02:33:59;;;;;;;3.55;3.25;;;;;;;;;;6219415;23;20490;-62
2021/07/01 02:36:44;;;;;;;4.97;3.55;;;;;;;;;;6223715;23;20004;-62
2021/07/01 02:39:48;;;;;;;4.28;3.53;;;;;;;;;;6227593;23;20016;-62
2021/07/01 02:42:14;;;;;;;3.95;3.63;;;;;;;;;;6219257;23;20015;-62
2021/07/01 02:44:41;;;;;;;5.07;3.80;;;;;;;;;;6219438;23;20316;-62
2021/07/01 02:47:24;;;;;;;4.03;3.60;;;;;;;;;;6245607;23;20104;-62
2021/07/01 02:49:54;;;;;;;4.25;3.95;;;;;;;;;;6219244;23;20009;-62
2021/07/01 02:52:25;;;;;;;4.20;3.90;;;;;;;;;;6246478;23;20027;-61
2021/07/01 02:54:51;;;;;;;4.43;4.03;;;;;;;;;;6219533;23;20436;-62
2021/07/01 02:57:18;;;;;;;3.92;3.63;;;;;;;;;;6219244;23;19996;-62
2021/07/01 02:59:54;;;;;;;4.05;3.75;;;;;;;;;;6219357;23;20019;-61
2021/07/01 03:02:22;;;;;;;3.53;3.22;;;;;;;;;;6245906;23;20008;-61
2021/07/01 03:05:10;;;;;;;3.50;3.17;;;;;;;;;;6220490;23;20079;-62
2021/07/01 03:07:36;;;;;;;4.05;3.22;;;;;;;;;;6221038;23;20028;-62
2021/07/01 03:10:03;;;;;;;3.22;3.03;;;;;;;;;;6221029;23;20478;-61
2021/07/01 03:12:31;;;;;;;3.83;3.33;;;;;;;;;;6220823;23;20020;-62
2021/07/01 03:14:58;;;;;;;3.53;3.22;;;;;;;;;;6220792;23;20263;-61
2021/07/01 03:17:24;;;;;;;3.40;3.13;;;;;;;;;;6247652;23;20008;-62
2021/07/01 03:19:49;;;;;;;3.67;3.28;;;;;;;;;;6221090;23;20004;-62
2021/07/01 03:22:33;;;;;;;3.90;3.25;;;;;;;;;;6248039;23;20027;-61
2021/07/01 03:24:59;;;;;;;3.25;2.95;;;;;;;;;;6221240;23;20319;-61
2021/07/01 03:27:25;;;;;;;3.60;3.40;;;;;;;;;;6196145;23;20000;-61
2021/07/01 03:29:52;;;;;;;3.60;3.30;;;;;;;;;;6221027;23;20004;-61
2021/07/01 03:32:17;;;;;;;5.20;3.50;;;;;;;;;;6247320;23;20003;-61
2021/07/01 03:34:43;;;;;;;3.80;3.30;;;;;;;;;;6220741;23;20034;-61
2021/07/01 03:37:09;;;;;;;3.40;3.10;;;;;;;;;;6220748;23;20082;-61
2021/07/01 03:40:13;;;;;;;3.58;3.28;;;;;;;;;;6223383;23;20448;-61
2021/07/01 03:42:43;;;;;;;;;;;;;;;;;;6221423;23;20445;-61
2021/07/01 03:45:09;;;;;;;3.08;2.90;;;;;;;;;;6220849;23;19975;-61
2021/07/01 03:47:37;;;;;;;3.05;2.90;;;;;;;;;;6220411;23;20015;-62
2021/07/01 03:50:04;;;;;;;5.57;3.17;;;;;;;;;;6247630;23;20000;-61
2021/07/01 03:52:48;;;;;;;3.65;3.35;;;;;;;;;;6224676;23;20403;-61
2021/07/01 03:55:13;;;;;;;3.47;3.28;;;;;;;;;;6220311;23;20012;-62
2021/07/01 03:57:39;;;;;;;3.72;3.40;;;;;;;;;;6220696;23;20000;-61
2021/07/01 04:00:06;;;;;;;3.78;3.58;;;;;;;;;;6220742;23;20015;-61
2021/07/01 04:02:51;;;;;;;3.53;3.33;;;;;;;;;;6220987;23;20000;-61
2021/07/01 04:05:20;;;;;;;3.85;3.55;;;;;;;;;;6220532;23;20039;-61
2021/07/01 04:07:48;;;;;;;3.65;3.22;;;;;;;;;;6220602;23;20396;-61
2021/07/01 04:10:17;;;;;;;3.40;3.10;;;;;;;;;;6220559;23;20084;-61
2021/07/01 04:12:49;;;;;;;3.55;3.35;;;;;;;;;;6247002;23;20509;-61
2021/07/01 04:15:30;;;;;;;5.63;3.50;;;;;;;;;;6247225;23;20083;-61
2021/07/01 04:18:14;;;;;;;3.58;3.28;;;;;;;;;;6247240;23;20014;-61
2021/07/01 04:21:19;;;;;;;4.82;3.70;;;;;;;;;;6096462;23;20439;-61
2021/07/01 04:24:03;;;;;;;3.80;3.55;;;;;;;;;;6096024;23;20021;-61
2021/07/01 04:27:05;;;;;;;3.90;3.53;;;;;;;;;;6193816;23;20012;-60
2021/07/01 04:29:38;;;;;;;4.20;3.72;;;;;;;;;;6220712;23;20372;-61
2021/07/01 04:32:04;;;;;;;4.43;3.60;;;;;;;;;;6246680;23;20011;-61
2021/07/01 04:34:30;;;;;;;6.20;3.70;;;;;;;;;;6220001;23;19996;-62
2021/07/01 04:36:59;;;;;;;4.10;3.55;;;;;;;;;;6220048;23;20043;-61
2021/07/01 04:39:32;;;;;;;4.43;4.03;;;;;;;;;;6220108;23;20007;-61
2021/07/01 04:42:09;;;;;;;4.50;4.05;;;;;;;;;;6219667;23;20008;-61
2021/07/01 04:44:35;;;;;;;4.45;4.15;;;;;;;;;;6195104;23;20000;-61
2021/07/01 04:47:03;;;;;;;4.10;3.80;;;;;;;;;;6219882;23;20443;-61
2021/07/01 04:49:28;;;;;;;4.93;4.00;;;;;;;;;;6246642;23;20000;-61
2021/07/01 04:52:20;;;;;;;5.20;4.15;;;;;;;;;;6211118;23;20392;-60
2021/07/01 04:55:05;;;;;;;4.68;4.25;;;;;;;;;;6247146;23;20066;-61
2021/07/01 04:57:49;;;;;;;5.40;4.43;;;;;;;;;;6246962;23;20015;-61
2021/07/01 05:00:16;;;;;;;4.93;4.45;;;;;;;;;;6219802;23;20012;-61
2021/07/01 05:03:07;;;;;;;4.70;4.30;;;;;;;;;;6199685;23;20073;-61
2021/07/01 05:05:35;;;;;;;4.82;4.38;;;;;;;;;;6219686;23;20340;-65
2021/07/01 05:08:01;;;;;;;4.47;4.15;;;;;;;;;;6220333;23;20000;-65
2021/07/01 05:10:28;;;;;;;6.93;4.65;;;;;;;;;;6220352;23;20324;-66
2021/07/01 05:13:09;;;;;;;4.50;4.07;;;;;;;;;;6246460;23;20012;-65
2021/07/01 05:15:35;;;;;;;6.72;4.32;;;;;;;;;;6246614;23;20070;-64
2021/07/01 05:18:04;;;;;;;5.35;4.30;;;;;;;;;;6219847;23;20416;-66
2021/07/01 05:20:31;;;;;;;4.85;4.35;;;;;;;;;;6246638;23;20015;-65
2021/07/01 05:23:14;;;;;;;4.32;4.03;;;;;;;;;;6247107;23;20006;-65
2021/07/01 05:25:58;;;;;;;5.78;4.43;;;;;;;;;;6246618;23;20034;-65
2021/07/01 05:28:42;;;;;;;4.78;4.38;;;;;;;;;;6246087;23;20015;-65
2021/07/01 05:31:35;;;;;;;5.80;4.28;;;;;;;;;;6210747;23;20020;-65
2021/07/01 05:34:26;;;;;;;4.88;4.20;;;;;;;;;;6245947;23;20012;-65
2021/07/01 05:36:52;;;;;;;4.53;4.22;;;;;;;;;;6219409;23;20027;-65
2021/07/01 05:39:21;;;;;;;4.47;3.75;;;;;;;;;;6219987;23;20007;-64
2021/07/01 05:41:48;;;;;;;4.30;3.35;;;;;;;;;;6194384;23;20004;-65
2021/07/01 05:44:13;;;;;;;4.60;4.18;;;;;;;;;;6219868;23;20046;-65
2021/07/01 05:46:46;;;;;;;6.53;4.13;;;;;;;;;;6219564;23;20387;-65
2021/07/01 05:49:12;;;;;;;4.40;3.90;;;;;;;;;;6246662;23;20000;-65
2021/07/01 05:51:39;;;;;;;5.95;4.13;;;;;;;;;;6246007;23;19996;-63
2021/07/01 05:54:12;;;;;;;4.25;3.95;;;;;;;;;;6246299;23;20090;-65
2021/07/01 05:56:37;;;;;;;4.47;4.18;;;;;;;;;;6246131;23;20004;-65
2021/07/01 05:59:08;;;;;;;4.05;3.65;;;;;;;;;;6219747;23;20438;-65
2021/07/01 06:01:36;;;;;;;4.65;4.20;;;;;;;;;;6246099;23;20063;-65
2021/07/01 06:04:07;;;;;;;4.43;4.03;;;;;;;;;;6246330;23;19992;-65
2021/07/01 06:06:56;;;;;;;4.53;4.13;;;;;;;;;;6224495;23;20416;-65
2021/07/01 06:09:26;;;;;;;4.88;4.20;;;;;;;;;;6219325;23;20028;-65
2021/07/01 06:11:56;;;;;;;7.13;4.07;;;;;;;;;;6245584;22;20016;-65
2021/07/01 06:14:22;;;;;;;5.05;4.47;;;;;;;;;;6246100;23;20008;-65
2021/07/01 06:16:48;;;;;;;5.07;4.63;;;;;;;;;;6245801;23;20015;-65
2021/07/01 06:19:14;;;;;;;4.63;4.22;;;;;;;;;;6194206;23;20016;-65
2021/07/01 06:21:40;;;;;;;7.72;4.70;;;;;;;;;;6245884;23;20042;-65
2021/07/01 06:24:08;;;;;;;5.20;4.32;;;;;;;;;;6245777;23;20440;-61
2021/07/01 06:26:35;;;;;;;5.10;4.55;;;;;;;;;;6246494;23;20083;-61
2021/07/01 06:29:01;;;;;;;4.78;4.30;;;;;;;;;;6246289;23;20000;-61
2021/07/01 06:31:26;;;;;;;4.75;4.35;;;;;;;;;;6246228;23;20004;-61
2021/07/01 06:33:53;;;;;;;7.07;4.40;;;;;;;;;;6246036;23;20008;-61
2021/07/01 06:36:21;;;;;;;4.93;4.38;;;;;;;;;;6245722;23;20000;-61
2021/07/01 06:39:07;;;;;;;5.03;4.35;;;;;;;;;;6200063;23;20012;-61
2021/07/01 06:41:52;;;;;;;5.53;4.13;;;;;;;;;;6248089;23;20046;-61
2021/07/01 06:44:36;;;;;;;5.72;4.88;;;;;;;;;;6248171;23;20387;-61
2021/07/01 06:47:32;;;;;;;4.45;4.13;;;;;;;;;;6140332;23;20009;-61
2021/07/01 06:50:20;;;;;;;5.38;4.18;;;;;;;;;;6248606;23;20042;-61
2021/07/01 06:53:04;;;;;;;4.57;4.15;;;;;;;;;;6248056;23;20022;-61
2021/07/01 06:56:05;;;;;;;4.55;4.15;;;;;;;;;;6185207;23;20344;-60
2021/07/01 06:58:34;;;;;;;4.43;4.13;;;;;;;;;;6235763;23;20098;-60
2021/07/01 07:01:00;;;;;;;6.45;4.68;;;;;;;;;;6247544;23;20006;-59
2021/07/01 07:03:26;;;;;;;4.43;4.00;;;;;;;;;;6247650;23;20032;-59
2021/07/01 07:05:52;;;;;;;4.40;4.00;;;;;;;;;;6247851;23;19993;-59
2021/07/01 07:08:18;;;;;;;4.30;3.88;;;;;;;;;;6247858;23;20434;-58
2021/07/01 07:10:45;;;;;;;4.40;4.00;;;;;;;;;;6247897;23;20004;-60
2021/07/01 07:13:11;;;;;;;4.10;3.72;;;;;;;;;;6247416;23;20036;-60
2021/07/01 07:15:37;;;;;;;4.18;3.88;;;;;;;;;;6247662;23;20360;-61
2021/07/01 07:18:12;;;;;;;3.92;3.53;;;;;;;;;;6247014;23;20053;-61
2021/07/01 07:20:40;;;;;;;3.83;3.47;;;;;;;;;;6247609;23;20027;-61
2021/07/01 07:23:07;;;;;;;4.97;3.50;;;;;;;;;;6220340;23;20305;-61
2021/07/01 07:25:41;;;;;;;3.97;3.70;;;;;;;;;;6247666;23;20007;-61
2021/07/01 07:28:08;;;;;;;4.35;3.58;;;;;;;;;;6247732;23;20004;-60
2021/07/01 07:30:34;;;;;;;3.65;3.20;;;;;;;;;;6247772;23;20078;-61
2021/07/01 07:33:04;;;;;;;6.57;4.15;;;;;;;;;;6247654;23;20008;-62
2021/07/01 07:35:29;;;;;;;12.98;7.28;;;;;;;;;;6247292;23;20004;-62
2021/07/01 07:37:55;;;;;;;9.93;7.32;;;;;;;;;;6247867;23;20062;-62
2021/07/01 07:40:21;;;;;;;5.57;4.00;;;;;;;;;;6247316;23;20007;-62
2021/07/01 07:42:47;;;;;;;2.90;2.70;;;;;;;;;;6247399;23;20027;-62
2021/07/01 07:45:14;;;;;;;3.35;3.05;;;;;;;;;;6247248;23;20004;-62
2021/07/01 07:47:39;;;;;;;2.85;2.65;;;;;;;;;;6247326;23;19996;-62
2021/07/01 07:50:08;;;;;;;2.55;2.35;;;;;;;;;;6246931;23;20033;-62
2021/07/01 07:52:34;;;;;;;2.35;2.25;;;;;;;;;;6220547;23;20008;-63
2021/07/01 07:55:03;;;;;;;2.22;1.90;;;;;;;;;;6247929;23;20036;-62
2021/07/01 07:57:29;;;;;;;3.75;1.88;;;;;;;;;;6247296;23;20003;-63
2021/07/01 07:59:56;;;;;;;2.10;1.90;;;;;;;;;;6247477;23;20087;-62
2021/07/01 08:02:41;;;;;;;2.00;1.90;;;;;;;;;;6247355;23;19996;-63
2021/07/01 08:05:07;;;;;;;4.25;1.70;;;;;;;;;;6247622;23;20006;-62
2021/07/01 08:07:35;;;;;;;3.40;1.90;;;;;;;;;;6247327;23;20024;-62
2021/07/01 08:10:03;;;;;;;1.90;1.80;;;;;;;;;;6247200;23;20028;-63
2021/07/01 08:12:29;;;;;;;4.03;1.80;;;;;;;;;;6246899;23;20396;-63
2021/07/01 08:14:56;;;;;;;1.95;1.83;;;;;;;;;;6247787;23;20036;-62
2021/07/01 08:17:21;;;;;;;2.20;1.70;;;;;;;;;;6247118;23;20332;-62
2021/07/01 08:19:47;;;;;;;1.83;1.65;;;;;;;;;;6247072;23;20008;-62
2021/07/01 08:22:12;;;;;;;2.10;1.90;;;;;;;;;;6246785;23;20029;-62
2021/07/01 08:24:38;;;;;;;1.95;1.60;;;;;;;;;;6246754;23;20379;-63
2021/07/01 08:27:04;;;;;;;2.10;1.90;;;;;;;;;;6246984;23;20003;-62
2021/07/01 08:29:29;;;;;;;3.15;1.58;;;;;;;;;;6220152;23;20011;-63
2021/07/01 08:31:57;;;;;;;1.75;1.65;;;;;;;;;;6245856;23;20062;-63
2021/07/01 08:34:23;;;;;;;2.17;1.67;;;;;;;;;;6244371;23;20047;-63
2021/07/01 08:36:49;;;;;;;2.00;1.90;;;;;;;;;;6244373;23;19996;-63
2021/07/01 08:39:15;;;;;;;2.38;2.08;;;;;;;;;;6244339;23;20468;-62
2021/07/01 08:41:44;;;;;;;2.10;2.00;;;;;;;;;;6244192;23;20027;-62
2021/07/01 08:44:14;;;;;;;2.17;1.98;;;;;;;;;;6244163;23;20000;-62
2021/07/01 08:46:42;;;;;;;2.15;2.05;;;;;;;;;;6244155;23;20058;-63
2021/07/01 08:49:09;;;;;;;2.20;2.00;;;;;;;;;;6246473;23;20054;-63
2021/07/01 08:51:35;;;;;;;2.20;2.00;;;;;;;;;;6246447;23;20000;-63
2021/07/01 08:54:19;;;;;;;1.83;1.73;;;;;;;;;;6219511;23;20371;-62
2021/07/01 08:56:45;;;;;;;2.92;1.77;;;;;;;;;;6246592;23;20447;-63
2021/07/01 08:59:11;;;;;;;1.58;1.50;;;;;;;;;;6246429;23;19996;-62
2021/07/01 09:01:37;;;;;;;1.80;1.70;;;;;;;;;;6245897;23;20038;-62
2021/07/01 09:04:04;;;;;;;2.25;1.80;;;;;;;;;;6246324;23;20023;-62
2021/07/01 09:06:33;;;;;;;1.98;1.88;;;;;;;;;;6245699;23;20000;-62
2021/07/01 09:09:02;;;;;;;2.10;1.95;;;;;;;;;;6246432;23;20008;-63
2021/07/01 09:11:27;;;;;;;1.98;1.85;;;;;;;;;;6245772;23;20008;-62
2021/07/01 09:13:55;;;;;;;2.17;2.00;;;;;;;;;;6246633;23;20568;-63
2021/07/01 09:16:21;;;;;;;2.00;1.90;;;;;;;;;;6219425;23;20447;-62
2021/07/01 09:18:46;;;;;;;2.65;2.05;;;;;;;;;;6246285;23;20011;-63
2021/07/01 09:21:13;;;;;;;1.73;1.63;;;;;;;;;;6246211;23;20079;-63
2021/07/01 09:23:47;;;;;;;2.35;1.80;;;;;;;;;;6246155;23;20004;-62
2021/07/01 09:26:23;;;;;;;1.60;1.50;;;;;;;;;;6246252;23;20000;-63
2021/07/01 09:28:49;;;;;;;3.17;1.90;;;;;;;;;;6219455;23;20032;-63
2021/07/01 09:31:19;;;;;;;1.85;1.75;;;;;;;;;;6246066;23;20031;-62
2021/07/01 09:33:49;;;;;;;1.67;1.58;;;;;;;;;;6246248;23;20498;-62
2021/07/01 09:36:15;;;;;;;1.70;1.60;;;;;;;;;;6246157;23;20000;-62
2021/07/01 09:38:41;;;;;;;1.80;1.60;;;;;;;;;;6246187;23;20008;-62
2021/07/01 09:41:07;;;;;;;1.73;1.63;;;;;;;;;;6245976;23;20003;-62
2021/07/01 09:43:32;;;;;;;1.70;1.60;;;;;;;;;;6246171;23;20000;-62
2021/07/01 09:46:00;;;;;;;2.08;1.63;;;;;;;;;;6246028;23;20000;-62
2021/07/01 09:48:28;;;;;;;1.58;1.48;;;;;;;;;;6246088;23;20363;-62
2021/07/01 09:50:54;;;;;;;1.65;1.52;;;;;;;;;;6246094;23;20042;-62
2021/07/01 09:53:27;;;;;;;1.35;1.30;;;;;;;;;;6245914;23;20003;-63
2021/07/01 09:55:53;;;;;;;1.27;1.27;;;;;;;;;;6245887;23;20004;-63
2021/07/01 09:58:20;;;;;;;1.27;1.27;;;;;;;;;;6245791;23;20050;-62
2021/07/01 10:00:50;;;;;;;1.75;1.55;;;;;;;;;;6246253;23;20074;-63
2021/07/01 10:03:16;;;;;;;1.65;1.45;;;;;;;;;;6246303;23;20000;-62
2021/07/01 10:05:41;;;;;;;1.63;1.52;;;;;;;;;;6245980;23;20447;-59
2021/07/01 10:08:07;;;;;;;1.50;1.40;;;;;;;;;;6245977;23;20005;-59
2021/07/01 10:10:44;;;;;;;1.45;1.35;;;;;;;;;;6246470;23;20000;-59
2021/07/01 10:13:11;;;;;;;1.55;1.45;;;;;;;;;;6219181;23;20016;-59
2021/07/01 10:15:38;;;;;;;1.52;1.48;;;;;;;;;;6219641;23;20090;-61
2021/07/01 10:18:11;;;;;;;1.73;1.63;;;;;;;;;;6246541;23;20008;-61
2021/07/01 10:20:37;;;;;;;1.88;1.77;;;;;;;;;;6246426;23;20004;-62
2021/07/01 10:23:03;;;;;;;1.65;1.55;;;;;;;;;;6219479;23;20003;-62
2021/07/01 10:25:30;;;;;;;1.85;1.75;;;;;;;;;;6246291;23;20516;-61
2021/07/01 10:27:57;;;;;;;1.77;1.63;;;;;;;;;;6246470;23;20335;-62
2021/07/01 10:30:24;;;;;;;2.67;1.65;;;;;;;;;;6246037;23;20008;-61
2021/07/01 10:32:51;;;;;;;1.92;1.75;;;;;;;;;;6219325;23;19996;-62
2021/07/01 10:35:18;;;;;;;2.10;2.00;;;;;;;;;;6246488;23;20027;-62
2021/07/01 10:37:54;;;;;;;2.03;1.92;;;;;;;;;;6246209;23;19996;-62
2021/07/01 10:40:20;;;;;;;2.10;1.90;;;;;;;;;;6219433;23;20088;-62
2021/07/01 10:42:49;;;;;;;2.08;1.88;;;;;;;;;;6245635;23;20431;-62
2021/07/01 10:45:15;;;;;;;2.80;2.03;;;;;;;;;;6218837;23;20046;-62
2021/07/01 10:47:41;;;;;;;3.60;2.50;;;;;;;;;;6245636;23;20018;-62
2021/07/01 10:50:30;;;;;;;2.80;2.58;;;;;;;;;;6245694;23;20011;-62
2021/07/01 10:52:56;;;;;;;5.32;2.92;;;;;;;;;;6245986;23;20085;-62
2021/07/01 10:55:22;;;;;;;3.50;2.70;;;;;;;;;;6245341;23;20000;-62
2021/07/01 10:57:51;;;;;;;2.53;2.20;;;;;;;;;;6245732;23;20372;-63
2021/07/01 11:00:16;;;;;;;5.00;1.92;;;;;;;;;;6245653;23;20082;-64
2021/07/01 11:02:46;;;;;;;2.60;1.80;;;;;;;;;;6245824;23;20087;-64
2021/07/01 11:05:12;;;;;;;2.00;1.88;;;;;;;;;;6245800;23;20004;-64
2021/07/01 11:07:42;;;;;;;3.30;1.77;;;;;;;;;;6193754;23;20328;-64
2021/07/01 11:10:07;;;;;;;2.33;2.03;;;;;;;;;;6245813;23;20079;-64
2021/07/01 11:12:40;;;;;;;2.53;2.13;;;;;;;;;;6219015;23;20098;-64
2021/07/01 11:15:06;;;;;;;2.20;2.05;;;;;;;;;;6193698;23;20332;-64
2021/07/01 11:17:33;;;;;;;2.25;2.05;;;;;;;;;;6245489;23;20004;-64
2021/07/01 11:20:11;;;;;;;2.13;2.03;;;;;;;;;;6245523;23;20008;-64
2021/07/01 11:22:47;;;;;;;2.22;2.13;;;;;;;;;;6245626;23;20289;-64
2021/07/01 11:25:23;;;;;;;2.35;2.15;;;;;;;;;;6246175;23;20000;-64
2021/07/01 11:27:48;;;;;;;2.75;2.55;;;;;;;;;;6247552;23;20011;-64
2021/07/01 11:30:21;;;;;;;4.15;2.72;;;;;;;;;;6247316;23;20324;-65
2021/07/01 11:32:46;;;;;;;3.47;3.22;;;;;;;;;;6247628;23;20012;-63
2021/07/01 11:35:21;;;;;;;4.47;3.47;;;;;;;;;;6247461;23;20000;-63
2021/07/01 11:37:47;;;;;;;3.80;3.50;;;;;;;;;;6247632;23;20102;-64
2021/07/01 11:40:20;;;;;;;3.60;3.08;;;;;;;;;;6247499;23;20416;-64
2021/07/01 11:42:46;;;;;;;4.50;3.17;;;;;;;;;;6247450;23;20008;-64
2021/07/01 11:45:12;;;;;;;3.47;3.13;;;;;;;;;;6247540;23;19992;-65
2021/07/01 11:47:40;;;;;;;4.30;3.97;;;;;;;;;;6247520;23;20011;-65
2021/07/01 11:50:06;;;;;;;3.88;3.40;;;;;;;;;;6248081;23;20008;-64
2021/07/01 11:52:32;;;;;;;3.42;3.05;;;;;;;;;;6247263;23;20431;-64
2021/07/01 11:55:01;;;;;;;2.65;2.47;;;;;;;;;;6247353;23;20054;-64
2021/07/01 11:57:27;;;;;;;3.50;3.22;;;;;;;;;;6247444;23;20336;-64
2021/07/01 11:59:52;;;;;;;3.22;2.83;;;;;;;;;;6247309;23;20057;-64
2021/07/01 12:02:19;;;;;;;4.18;3.83;;;;;;;;;;6247119;23;20008;-64
2021/07/01 12:04:45;;;;;;;5.53;4.10;;;;;;;;;;6247428;23;20332;-65
2021/07/01 12:07:20;;;;;;;4.65;3.50;;;;;;;;;;6247578;23;20145;-64
2021/07/01 12:09:48;;;;;;;5.18;3.88;;;;;;;;;;6220341;23;20425;-65
2021/07/01 12:12:30;;;;;;;4.35;3.92;;;;;;;;;;6246610;23;20126;-65
2021/07/01 12:15:12;;;;;;;5.60;4.03;;;;;;;;;;6247193;23;20011;-64
2021/07/01 12:17:58;;;;;;;7.68;4.45;;;;;;;;;;6247123;23;20012;-64
2021/07/01 12:20:40;;;;;;;5.57;4.57;;;;;;;;;;6246893;23;20130;-62
2021/07/01 12:23:11;;;;;;;8.80;4.82;;;;;;;;;;6247074;23;20004;-62
2021/07/01 12:25:37;;;;;;;10.57;5.28;;;;;;;;;;6246787;23;20000;-62
2021/07/01 12:28:07;;;;;;;11.07;6.10;;;;;;;;;;6246857;23;20043;-61
2021/07/01 12:30:47;;;;;;;5.85;4.93;;;;;;;;;;6246910;23;20000;-62
2021/07/01 12:33:12;;;;;;;;;;;;;;;;;;6247202;23;20054;-65
2021/07/01 12:35:39;;;;;;;11.13;5.57;;;;;;;;;;6246699;23;19900;-65
2021/07/01 12:38:08;;;;;;;9.40;6.20;;;;;;;;;;6246835;23;20227;-65
2021/07/01 12:40:34;;;;;;;10.02;6.32;;;;;;;;;;6219687;23;19996;-64
2021/07/01 12:43:01;;;;;;;9.23;5.70;;;;;;;;;;6220130;23;20015;-65
2021/07/01 12:45:30;;;;;;;7.68;5.00;;;;;;;;;;6247049;23;20031;-65
2021/07/01 12:47:56;;;;;;;7.50;5.03;;;;;;;;;;6247229;23;20050;-65
2021/07/01 12:50:28;;;;;;;8.52;5.10;;;;;;;;;;6247119;23;20047;-65
2021/07/01 12:52:53;;;;;;;8.70;5.30;;;;;;;;;;6246989;23;20012;-63
2021/07/01 12:55:21;;;;;;;9.38;4.97;;;;;;;;;;6246616;23;19996;-63
2021/07/01 12:57:47;;;;;;;8.30;5.00;;;;;;;;;;6246658;23;20447;-63
2021/07/01 13:00:12;;;;;;;6.45;4.80;;;;;;;;;;6246905;23;20000;-63
2021/07/01 13:02:38;;;;;;;6.55;4.28;;;;;;;;;;6246365;23;20008;-63
2021/07/01 13:05:09;;;;;;;5.10;4.35;;;;;;;;;;6246817;23;20304;-70
2021/07/01 13:07:35;;;;;;;4.95;4.30;;;;;;;;;;6246870;23;20004;-70
2021/07/01 13:10:06;;;;;;;4.00;3.45;;;;;;;;;;6246797;23;20045;-69
2021/07/01 13:12:51;;;;;;;5.35;4.40;;;;;;;;;;6246097;23;20019;-68
2021/07/01 13:15:21;;;;;;;6.43;4.18;;;;;;;;;;6246860;23;20038;-67
2021/07/01 13:17:50;;;;;;;9.63;4.22;;;;;;;;;;6246721;23;20039;-66
2021/07/01 13:20:17;;;;;;;8.63;4.50;;;;;;;;;;6246484;23;20309;-67
2021/07/01 13:22:44;;;;;;;6.15;4.47;;;;;;;;;;6246852;23;19996;-66
2021/07/01 13:25:14;;;;;;;4.35;3.90;;;;;;;;;;6246865;23;20445;-67
2021/07/01 13:27:45;;;;;;;4.07;3.72;;;;;;;;;;6219763;23;20004;-62
2021/07/01 13:30:15;;;;;;;3.50;3.15;;;;;;;;;;6246613;23;20332;-62
2021/07/01 13:32:50;;;;;;;4.28;3.22;;;;;;;;;;6219700;23;20095;-62
2021/07/01 13:35:17;;;;;;;3.42;3.10;;;;;;;;;;6246585;23;20371;-62
2021/07/01 13:37:43;;;;;;;2.90;2.65;;;;;;;;;;6245972;23;20324;-62
2021/07/01 13:40:13;;;;;;;3.10;2.80;;;;;;;;;;6246537;23;20031;-62
2021/07/01 13:42:38;;;;;;;4.25;2.88;;;;;;;;;;6246657;23;20054;-62
2021/07/01 13:45:08;;;;;;;5.50;3.25;;;;;;;;;;6246691;23;20007;-63
2021/07/01 13:47:44;;;;;;;3.15;2.95;;;;;;;;;;6246147;23;20428;-62
2021/07/01 13:50:27;;;;;;;3.47;3.10;;;;;;;;;;6245596;23;20046;-63
2021/07/01 13:52:53;;;;;;;3.72;3.05;;;;;;;;;;6246572;23;20012;-62
2021/07/01 13:55:28;;;;;;;2.92;2.70;;;;;;;;;;6246425;23;20047;-62
2021/07/01 13:57:54;;;;;;;3.17;2.92;;;;;;;;;;6245855;23;20008;-62
2021/07/01 14:00:30;;;;;;;3.10;2.90;;;;;;;;;;6245801;23;19996;-62
2021/07/01 14:03:06;;;;;;;2.55;2.35;;;;;;;;;;6245728;23;20427;-62
2021/07/01 14:05:36;;;;;;;2.83;2.50;;;;;;;;;;6245978;23;20004;-63
2021/07/01 14:08:02;;;;;;;3.25;3.03;;;;;;;;;;6246026;23;20371;-62
2021/07/01 14:10:29;;;;;;;2.78;2.60;;;;;;;;;;6219016;23;20004;-62
2021/07/01 14:12:55;;;;;;;2.92;2.75;;;;;;;;;;6245616;23;20020;-62
2021/07/01 14:15:20;;;;;;;3.22;2.78;;;;;;;;;;6245799;23;20073;-62
2021/07/01 14:17:46;;;;;;;3.08;2.80;;;;;;;;;;6245820;23;20000;-62
2021/07/01 14:20:11;;;;;;;2.88;2.60;;;;;;;;;;6245820;23;20008;-62
2021/07/01 14:22:38;;;;;;;2.90;2.80;;;;;;;;;;6245635;23;20001;-62
2021/07/01 14:25:13;;;;;;;3.10;2.83;;;;;;;;;;6245923;23;20004;-62
2021/07/01 14:27:39;;;;;;;3.20;2.90;;;;;;;;;;6245519;23;20065;-62
2021/07/01 14:30:04;;;;;;;3.42;3.13;;;;;;;;;;6245646;23;20063;-63
2021/07/01 14:32:34;;;;;;;3.13;2.92;;;;;;;;;;6219673;23;20008;-63
2021/07/01 14:35:00;;;;;;;3.10;2.80;;;;;;;;;;6246017;23;20079;-62
2021/07/01 14:37:25;;;;;;;2.72;2.63;;;;;;;;;;6219526;23;20024;-62
2021/07/01 14:40:00;;;;;;;3.15;2.95;;;;;;;;;;6246369;23;20427;-62
2021/07/01 14:42:25;;;;;;;3.90;3.05;;;;;;;;;;6246237;23;20401;-62
2021/07/01 14:45:07;;;;;;;3.15;2.95;;;;;;;;;;6246250;23;20023;-62
2021/07/01 14:47:42;;;;;;;3.20;3.00;;;;;;;;;;6246307;23;20451;-62
2021/07/01 14:50:21;;;;;;;3.65;2.95;;;;;;;;;;6245986;23;20001;-62
2021/07/01 14:52:46;;;;;;;3.08;2.88;;;;;;;;;;6246264;23;20058;-62
2021/07/01 14:55:16;;;;;;;3.25;2.72;;;;;;;;;;6246023;23;20000;-62
2021/07/01 14:57:42;;;;;;;2.72;2.53;;;;;;;;;;6245889;23;20005;-62
2021/07/01 15:00:09;;;;;;;2.45;2.08;;;;;;;;;;6246474;23;20057;-62